Time;durP1;ratioP1;P1;durP2;ratioP2;P2;SDS_P1;SDS_P2;PMS_P1;PMS_P2;Temp;Humidity;BMP_temperature;BMP_pressure;BME280_temperature;BME280_humidity;BME280_pressure;Samples;Min_cycle;Max_cycle;Signal;HPM_P1;HPM_P2
2022/03/19 00:00:11;;;;;;;20.27;3.65;;;8.70;64.00;;;;;;9185758;19;20014;-61
2022/03/19 00:03:25;;;;;;;21.00;3.30;;;8.70;64.00;;;;;;9184559;19;20014;-61
2022/03/19 00:06:32;;;;;;;16.60;3.40;;;8.70;64.10;;;;;;9185639;19;20069;-61
2022/03/19 00:09:39;;;;;;;22.92;3.97;;;8.60;64.10;;;;;;9182167;19;20056;-61
2022/03/19 00:12:44;;;;;;;18.80;3.55;;;8.60;64.20;;;;;;9183725;19;20053;-61
2022/03/19 00:15:50;;;;;;;12.80;3.15;;;8.60;64.20;;;;;;9184231;19;20356;-62
2022/03/19 00:18:58;;;;;;;24.70;3.50;;;8.50;64.20;;;;;;9183313;19;20018;-62
2022/03/19 00:22:05;;;;;;;16.02;3.42;;;8.50;64.30;;;;;;9182324;19;20010;-60
2022/03/19 00:25:12;;;;;;;24.08;3.75;;;8.40;64.30;;;;;;9183693;19;20349;-62
2022/03/19 00:28:19;;;;;;;22.98;3.50;;;8.40;64.40;;;;;;9180985;19;20036;-61
2022/03/19 00:31:24;;;;;;;18.70;3.42;;;8.40;64.40;;;;;;9182483;19;20361;-61
2022/03/19 00:34:32;;;;;;;21.52;4.25;;;8.30;64.40;;;;;;9183560;19;20018;-61
2022/03/19 00:37:46;;;;;;;19.33;5.10;;;8.30;64.50;;;;;;9182668;19;20490;-62
2022/03/19 00:40:52;;;;;;;23.85;4.45;;;8.30;64.60;;;;;;9181980;19;20018;-62
2022/03/19 00:43:57;;;;;;;20.65;3.53;;;8.20;64.50;;;;;;9185161;19;20025;-61
2022/03/19 00:47:01;;;;;;;20.90;3.63;;;8.20;64.60;;;;;;9183946;19;20021;-61
2022/03/19 00:50:11;;;;;;;17.38;4.30;;;8.20;64.70;;;;;;9182980;19;20471;-62
2022/03/19 00:53:16;;;;;;;20.33;4.25;;;8.10;64.80;;;;;;9182678;19;20638;-62
2022/03/19 00:56:28;;;;;;;18.98;3.75;;;8.10;64.70;;;;;;9177781;19;20019;-60
2022/03/19 00:59:32;;;;;;;22.67;4.22;;;8.00;64.70;;;;;;9183166;19;20016;-59
2022/03/19 01:02:37;;;;;;;16.67;3.63;;;8.00;64.80;;;;;;9181276;19;20014;-61
2022/03/19 01:05:46;;;;;;;18.55;3.45;;;8.00;64.90;;;;;;9180692;19;20022;-60
2022/03/19 01:08:51;;;;;;;23.27;3.42;;;8.00;65.10;;;;;;9178658;19;20029;-61
2022/03/19 01:11:56;;;;;;;25.70;4.10;;;7.90;65.00;;;;;;9181040;19;20022;-60
2022/03/19 01:15:01;;;;;;;19.77;4.20;;;7.90;65.10;;;;;;9180652;19;20017;-62
2022/03/19 01:18:06;;;;;;;18.30;3.88;;;7.90;65.20;;;;;;9178781;19;20022;-61
2022/03/19 01:21:14;;;;;;;18.35;3.58;;;7.80;65.10;;;;;;9183121;19;20018;-60
2022/03/19 01:24:19;;;;;;;25.80;4.15;;;7.80;65.20;;;;;;9181936;19;20022;-63
2022/03/19 01:27:24;;;;;;;23.73;4.88;;;7.80;65.30;;;;;;9179839;19;20017;-60
2022/03/19 01:30:29;;;;;;;19.95;4.82;;;7.70;65.30;;;;;;9180823;19;20021;-61
2022/03/19 01:33:34;;;;;;;17.35;3.60;;;7.70;65.40;;;;;;9182909;19;20785;-64
2022/03/19 01:36:42;;;;;;;25.70;4.15;;;7.60;65.40;;;;;;9179299;19;20363;-62
2022/03/19 01:39:47;;;;;;;36.05;4.10;;;7.60;65.50;;;;;;9178573;19;20014;-63
2022/03/19 01:42:53;;;;;;;31.90;4.72;;;7.60;65.50;;;;;;9179413;19;20006;-60
2022/03/19 01:46:02;;;;;;;20.90;3.80;;;7.50;65.60;;;;;;9180616;19;20042;-61
2022/03/19 01:49:08;;;;;;;22.33;4.88;;;7.60;65.70;;;;;;9182034;19;20319;-60
2022/03/19 01:52:15;;;;;;;25.35;4.80;;;7.50;65.70;;;;;;9180533;19;20029;-60
2022/03/19 01:55:22;;;;;;;27.52;5.05;;;7.50;65.80;;;;;;9176592;19;20139;-62
2022/03/19 01:58:28;;;;;;;28.42;4.63;;;7.50;65.90;;;;;;9182036;19;20021;-61
2022/03/19 02:01:33;;;;;;;19.33;4.57;;;7.50;65.90;;;;;;9177528;19;20511;-62
2022/03/19 02:04:39;;;;;;;35.00;4.38;;;7.40;65.90;;;;;;9180177;19;20017;-61
2022/03/19 02:07:49;;;;;;;18.73;4.70;;;7.40;66.00;;;;;;9178360;19;20022;-61
2022/03/19 02:10:54;;;;;;;25.65;5.47;;;7.40;66.10;;;;;;9179258;19;20078;-61
2022/03/19 02:13:59;;;;;;;21.55;4.82;;;7.30;66.10;;;;;;9177801;19;20018;-60
2022/03/19 02:17:04;;;;;;;20.38;4.90;;;7.30;66.10;;;;;;9178287;19;20015;-62
2022/03/19 02:20:11;;;;;;;26.23;4.68;;;7.30;66.20;;;;;;9178835;19;20744;-63
2022/03/19 02:26:46;;;;;;;18.15;4.88;;;7.30;66.50;;;;;;9175737;19;20500;-61
2022/03/19 02:29:51;;;;;;;21.17;4.72;;;7.30;66.40;;;;;;9178085;19;20474;-60
2022/03/19 02:32:57;;;;;;;18.10;5.00;;;7.20;66.30;;;;;;9178155;19;20015;-62
2022/03/19 02:36:02;;;;;;;26.42;4.75;;;7.20;66.30;;;;;;9179679;19;20378;-61
2022/03/19 02:39:16;;;;;;;19.63;5.47;;;7.20;66.40;;;;;;9178979;19;20311;-61
2022/03/19 02:42:23;;;;;;;23.50;5.70;;;7.10;66.60;;;;;;9177398;19;20055;-60
2022/03/19 02:45:28;;;;;;;20.02;5.90;;;7.20;66.50;;;;;;9178577;19;20014;-61
2022/03/19 02:48:33;;;;;;;23.13;5.88;;;7.10;66.50;;;;;;9176763;19;20023;-61
2022/03/19 02:51:39;;;;;;;24.48;5.57;;;7.10;66.60;;;;;;9180218;19;20017;-62
2022/03/19 02:54:47;;;;;;;26.25;6.20;;;7.10;66.70;;;;;;9182847;19;20029;-61
2022/03/19 02:57:52;;;;;;;13.70;4.93;;;7.10;66.80;;;;;;9188302;19;20017;-60
2022/03/19 03:00:57;;;;;;;22.95;6.18;;;7.00;66.70;;;;;;9187225;19;20021;-61
2022/03/19 03:04:03;;;;;;;29.88;6.25;;;7.00;66.80;;;;;;9186313;19;20018;-63
2022/03/19 03:07:09;;;;;;;19.50;5.53;;;7.00;66.80;;;;;;9184045;19;20835;-61
2022/03/19 03:10:18;;;;;;;27.42;6.22;;;7.00;66.90;;;;;;9183275;19;20653;-63
2022/03/19 03:13:23;;;;;;;26.52;5.57;;;6.90;67.00;;;;;;9185240;19;20511;-60
2022/03/19 03:16:29;;;;;;;23.63;5.72;;;6.90;67.00;;;;;;9186328;19;20530;-61
2022/03/19 03:19:34;;;;;;;18.85;6.85;;;6.80;67.00;;;;;;9188136;19;20034;-61
2022/03/19 03:22:42;;;;;;;29.35;6.68;;;6.90;67.10;;;;;;9186775;19;20352;-61
2022/03/19 03:25:50;;;;;;;18.23;5.75;;;6.80;67.80;;;;;;9186304;19;20658;-61
2022/03/19 03:28:55;;;;;;;34.08;6.05;;;6.80;67.20;;;;;;9187077;19;20022;-61
2022/03/19 03:32:00;;;;;;;22.85;5.30;;;6.80;67.20;;;;;;9186222;19;20090;-60
2022/03/19 03:35:05;;;;;;;22.50;5.05;;;6.80;67.30;;;;;;9186197;19;20010;-61
2022/03/19 03:38:11;;;;;;;33.67;7.13;;;6.80;67.30;;;;;;9184190;19;20082;-61
2022/03/19 03:41:19;;;;;;;23.83;5.70;;;6.80;67.40;;;;;;9187460;19;20006;-61
2022/03/19 03:44:24;;;;;;;13.60;4.93;;;6.80;67.50;;;;;;9185751;19;20022;-61
2022/03/19 03:47:29;;;;;;;18.48;5.15;;;6.70;67.40;;;;;;9184009;19;20044;-61
2022/03/19 03:50:35;;;;;;;20.90;5.10;;;6.70;67.50;;;;;;9186147;19;20011;-63
2022/03/19 03:53:40;;;;;;;14.55;4.95;;;6.70;67.50;;;;;;9186574;19;20018;-61
2022/03/19 03:56:48;;;;;;;19.38;5.20;;;6.70;68.20;;;;;;9180360;19;20014;-61
2022/03/19 03:59:53;;;;;;;18.95;5.07;;;6.70;67.60;;;;;;9186547;19;20010;-61
2022/03/19 04:02:58;;;;;;;20.08;4.80;;;6.70;67.60;;;;;;9183866;19;20018;-63
2022/03/19 04:06:03;;;;;;;14.00;4.75;;;6.70;67.60;;;;;;9183479;19;20018;-60
2022/03/19 04:09:08;;;;;;;22.92;5.50;;;6.60;67.60;;;;;;9182142;19;20019;-60
2022/03/19 04:12:16;;;;;;;18.98;4.72;;;6.60;67.60;;;;;;9185251;19;20019;-64
2022/03/19 04:15:21;;;;;;;11.75;4.47;;;6.60;67.60;;;;;;9185537;19;20050;-61
2022/03/19 04:18:26;;;;;;;21.25;5.13;;;6.60;67.60;;;;;;9185143;19;20373;-61
2022/03/19 04:21:31;;;;;;;15.35;5.05;;;6.60;67.60;;;;;;9183799;19;20010;-61
2022/03/19 04:24:36;;;;;;;19.63;5.68;;;6.60;67.80;;;;;;9183396;19;20052;-62
2022/03/19 04:27:45;;;;;;;21.52;5.10;;;6.50;67.70;;;;;;9182179;19;20394;-61
2022/03/19 04:30:50;;;;;;;18.13;5.97;;;6.50;67.80;;;;;;9183109;19;20380;-61
2022/03/19 04:33:55;;;;;;;14.60;5.18;;;6.50;67.70;;;;;;9183771;19;20575;-60
2022/03/19 04:37:00;;;;;;;21.27;5.35;;;6.50;67.80;;;;;;9183014;19;20025;-61
2022/03/19 04:40:08;;;;;;;17.08;5.35;;;6.40;67.80;;;;;;9182803;19;20030;-62
2022/03/19 04:43:16;;;;;;;25.45;5.68;;;6.40;67.90;;;;;;9184367;19;20010;-61
2022/03/19 04:46:21;;;;;;;17.23;5.13;;;6.40;67.90;;;;;;9183054;19;20023;-61
2022/03/19 04:49:26;;;;;;;16.27;4.28;;;6.40;67.90;;;;;;9184017;19;20014;-61
2022/03/19 04:52:31;;;;;;;16.08;4.78;;;6.40;68.00;;;;;;9181565;19;20010;-61
2022/03/19 04:55:37;;;;;;;10.30;4.38;;;6.30;67.90;;;;;;9176945;19;20025;-60
2022/03/19 04:58:45;;;;;;;19.75;5.82;;;6.30;68.00;;;;;;9183575;19;20011;-61
2022/03/19 05:01:51;;;;;;;16.27;4.60;;;6.30;68.00;;;;;;9182655;19;20069;-60
2022/03/19 05:04:57;;;;;;;22.27;5.20;;;6.30;68.00;;;;;;9184092;19;20014;-62
2022/03/19 05:08:03;;;;;;;12.02;4.30;;;6.30;68.00;;;;;;9179594;19;20432;-61
2022/03/19 05:11:16;;;;;;;18.02;5.25;;;6.30;68.00;;;;;;9182874;19;20491;-62
2022/03/19 05:14:24;;;;;;;15.23;4.22;;;6.30;68.00;;;;;;9180586;19;20025;-61
2022/03/19 05:17:29;;;;;;;14.70;4.38;;;6.30;68.10;;;;;;9181175;19;20006;-61
2022/03/19 05:20:34;;;;;;;19.90;4.75;;;6.30;68.00;;;;;;9184159;19;20024;-61
2022/03/19 05:23:39;;;;;;;17.35;5.07;;;6.20;67.90;;;;;;9181032;19;20014;-63
2022/03/19 05:26:44;;;;;;;19.55;4.32;;;6.20;68.00;;;;;;9181581;19;20492;-60
2022/03/19 05:29:52;;;;;;;19.90;5.60;;;6.20;67.90;;;;;;9180846;19;20015;-61
2022/03/19 05:32:57;;;;;;;19.40;4.70;;;6.20;67.90;;;;;;9182585;19;20018;-61
2022/03/19 05:36:02;;;;;;;22.08;6.63;;;6.10;67.90;;;;;;9182647;19;20007;-61
2022/03/19 05:39:07;;;;;;;21.27;4.18;;;6.10;68.00;;;;;;9179959;19;20026;-60
2022/03/19 05:42:13;;;;;;;13.23;4.90;;;6.10;68.00;;;;;;9179983;19;20033;-62
2022/03/19 05:45:21;;;;;;;22.65;5.43;;;6.10;67.90;;;;;;9179215;19;20038;-60
2022/03/19 05:48:26;;;;;;;17.92;5.55;;;6.00;67.90;;;;;;9177926;19;20345;-61
2022/03/19 05:51:32;;;;;;;20.02;4.72;;;6.00;67.90;;;;;;9178971;19;20052;-60
2022/03/19 05:54:37;;;;;;;15.50;4.70;;;6.00;68.00;;;;;;9176848;19;20014;-61
2022/03/19 05:57:43;;;;;;;16.15;4.90;;;6.00;68.00;;;;;;9179111;19;20014;-60
2022/03/19 06:00:50;;;;;;;15.90;4.63;;;6.00;68.10;;;;;;9178881;19;20111;-60
2022/03/19 06:03:56;;;;;;;17.17;4.97;;;6.00;68.20;;;;;;9179483;19;20038;-61
2022/03/19 06:07:01;;;;;;;21.30;5.70;;;6.00;68.20;;;;;;9180913;19;20043;-62
2022/03/19 06:10:08;;;;;;;16.20;4.82;;;5.90;68.20;;;;;;9176696;19;20055;-60
2022/03/19 06:13:13;;;;;;;17.38;4.90;;;5.90;68.20;;;;;;9179764;19;20590;-61
2022/03/19 06:16:20;;;;;;;20.67;4.90;;;5.90;68.20;;;;;;9179105;19;20025;-59
2022/03/19 06:19:25;;;;;;;19.60;4.82;;;5.90;68.30;;;;;;9179547;19;20043;-60
2022/03/19 06:22:30;;;;;;;21.95;4.97;;;5.90;68.30;;;;;;9175590;19;20485;-61
2022/03/19 06:25:36;;;;;;;21.92;5.40;;;5.90;68.30;;;;;;9175740;19;20025;-63
2022/03/19 06:28:41;;;;;;;22.83;5.63;;;5.90;68.40;;;;;;9178081;19;20517;-62
2022/03/19 06:31:49;;;;;;;18.02;5.32;;;5.80;68.30;;;;;;9177835;19;20015;-60
2022/03/19 06:34:54;;;;;;;19.70;5.22;;;5.80;68.40;;;;;;9180058;19;20014;-60
2022/03/19 06:37:57;;;;;;;23.58;5.22;;;5.90;68.50;;;;;;9177503;19;20590;-63
2022/03/19 06:41:02;;;;;;;20.95;5.35;;;5.90;68.50;;;;;;9178861;19;20015;-65
2022/03/19 06:44:07;;;;;;;22.50;4.70;;;5.90;68.60;;;;;;9179212;19;20018;-60
2022/03/19 06:47:15;;;;;;;22.88;5.97;;;5.90;68.60;;;;;;9177993;19;20018;-61
2022/03/19 06:50:20;;;;;;;18.42;5.03;;;5.90;68.70;;;;;;9177954;19;20703;-61
2022/03/19 06:53:26;;;;;;;16.50;4.95;;;5.90;68.70;;;;;;9175635;19;20018;-60
2022/03/19 06:56:32;;;;;;;21.17;4.88;;;5.90;68.70;;;;;;9172609;19;20014;-61
2022/03/19 06:59:37;;;;;;;25.20;5.55;;;6.00;68.80;;;;;;9179393;19;20015;-62
2022/03/19 07:02:52;;;;;;;14.57;4.20;;;6.00;68.80;;;;;;9178357;19;20026;-61
2022/03/19 07:05:57;;;;;;;21.67;4.78;;;6.00;69.00;;;;;;9178810;19;20598;-61
2022/03/19 07:09:22;;;;;;;17.35;5.07;;;6.00;68.90;;;;;;9174612;19;20384;-61
2022/03/19 07:12:27;;;;;;;18.65;6.28;;;6.10;68.90;;;;;;9179253;19;20017;-61
2022/03/19 07:15:32;;;;;;;13.23;4.93;;;6.20;69.00;;;;;;9176383;19;20025;-61
2022/03/19 07:18:40;;;;;;;19.55;4.82;;;6.20;69.00;;;;;;9174627;19;20011;-62
2022/03/19 07:21:45;;;;;;;19.88;4.57;;;6.30;69.10;;;;;;9171440;19;20056;-60
2022/03/19 07:24:50;;;;;;;20.63;4.95;;;6.30;69.10;;;;;;9177055;19;20105;-60
2022/03/19 07:27:57;;;;;;;27.92;5.50;;;6.40;69.20;;;;;;9174085;19;20470;-61
2022/03/19 07:31:02;;;;;;;21.50;5.22;;;6.50;69.20;;;;;;9174093;19;20422;-61
2022/03/19 07:34:10;;;;;;;16.55;4.55;;;6.60;69.30;;;;;;9177298;19;20011;-61
2022/03/19 07:37:15;;;;;;;18.60;4.75;;;6.70;69.30;;;;;;9178235;19;20017;-60
2022/03/19 07:41:45;;;;;;;15.90;5.07;;;6.80;69.30;;;;;;9186168;19;20022;-61
2022/03/19 07:43:48;;;;;;;22.42;6.95;;;6.90;69.30;;;;;;9185124;19;20018;-61
2022/03/19 07:46:55;;;;;;;19.17;4.78;;;7.00;69.30;;;;;;9185352;19;20520;-61
2022/03/19 07:50:04;;;;;;;17.10;4.63;;;7.10;69.30;;;;;;9185088;19;20024;-63
2022/03/19 07:53:10;;;;;;;28.38;6.20;;;7.30;69.40;;;;;;9183818;19;20019;-60
2022/03/19 07:56:15;;;;;;;28.50;5.13;;;7.40;69.20;;;;;;9181747;19;20138;-61
2022/03/19 07:59:20;;;;;;;18.95;4.20;;;7.60;69.20;;;;;;9185069;19;20078;-64
2022/03/19 08:02:26;;;;;;;15.88;3.75;;;7.70;69.10;;;;;;9185439;19;20011;-61
2022/03/19 08:05:34;;;;;;;13.25;4.00;;;7.90;69.10;;;;;;9186275;19;20018;-62
2022/03/19 08:08:40;;;;;;;12.27;4.00;;;8.10;69.00;;;;;;9183722;19;20010;-61
2022/03/19 08:11:45;;;;;;;14.85;4.38;;;8.20;68.90;;;;;;9181736;19;20018;-62
2022/03/19 08:14:51;;;;;;;16.85;3.90;;;8.40;68.80;;;;;;9185001;19;20026;-62
2022/03/19 08:17:56;;;;;;;18.73;3.75;;;8.60;68.70;;;;;;9184541;19;20475;-61
2022/03/19 08:21:04;;;;;;;17.38;3.50;;;8.80;68.60;;;;;;9183575;19;20014;-60
2022/03/19 08:24:10;;;;;;;18.27;4.38;;;9.00;68.40;;;;;;9183476;19;20052;-62
2022/03/19 08:27:15;;;;;;;11.13;3.35;;;9.20;68.20;;;;;;9184706;19;20029;-61
2022/03/19 08:30:21;;;;;;;19.50;3.42;;;9.30;68.00;;;;;;9181622;19;20014;-60
2022/03/19 08:33:26;;;;;;;17.08;3.13;;;9.50;67.80;;;;;;9182890;19;20768;-61
2022/03/19 08:36:34;;;;;;;15.35;3.78;;;9.70;67.70;;;;;;9182826;19;20015;-61
2022/03/19 08:42:56;;;;;;;21.75;4.03;;;10.10;67.30;;;;;;9183051;19;20014;-61
2022/03/19 08:46:02;;;;;;;15.73;3.50;;;10.30;67.10;;;;;;9181907;19;20022;-60
2022/03/19 08:49:07;;;;;;;20.42;3.17;;;10.50;66.90;;;;;;9177105;19;20011;-63
2022/03/19 08:52:14;;;;;;;17.25;4.53;;;10.60;66.70;;;;;;9180744;19;20046;-60
2022/03/19 08:55:19;;;;;;;20.92;4.13;;;10.80;66.60;;;;;;9176301;19;20018;-62
2022/03/19 08:58:24;;;;;;;18.10;3.83;;;11.00;66.30;;;;;;9178142;19;20021;-62
2022/03/19 09:01:29;;;;;;;15.23;3.17;;;11.20;66.10;;;;;;9182586;19;20051;-61
2022/03/19 09:04:34;;;;;;;15.68;3.15;;;11.40;65.90;;;;;;9182055;19;20019;-60
2022/03/19 09:07:42;;;;;;;11.98;2.80;;;11.50;65.60;;;;;;9179554;19;20059;-61
2022/03/19 09:10:47;;;;;;;13.88;3.35;;;11.70;65.40;;;;;;9179385;19;20022;-61
2022/03/19 09:13:54;;;;;;;11.88;2.60;;;11.90;65.40;;;;;;9179425;19;20531;-61
2022/03/19 09:16:59;;;;;;;11.45;2.70;;;12.00;65.10;;;;;;9180875;19;20014;-62
2022/03/19 09:20:04;;;;;;;13.88;2.90;;;12.20;64.80;;;;;;9180309;19;20044;-61
2022/03/19 09:23:12;;;;;;;11.48;2.78;;;12.30;64.40;;;;;;9177249;19;20028;-63
2022/03/19 09:26:16;;;;;;;12.70;2.67;;;12.40;64.00;;;;;;9178881;19;20018;-61
2022/03/19 09:29:22;;;;;;;12.65;2.35;;;12.60;64.00;;;;;;9175058;19;20022;-62
2022/03/19 09:32:27;;;;;;;11.98;2.47;;;12.70;63.70;;;;;;9179155;19;20018;-60
2022/03/19 09:35:32;;;;;;;14.13;3.22;;;12.80;63.20;;;;;;9173185;19;20053;-61
2022/03/19 09:38:39;;;;;;;10.10;2.65;;;12.90;63.00;;;;;;9175515;19;20034;-63
2022/03/19 09:41:45;;;;;;;9.75;2.05;;;12.90;62.60;;;;;;9174966;19;20014;-63
2022/03/19 09:44:50;;;;;;;12.65;2.45;;;13.00;62.40;;;;;;9172346;19;20019;-62
2022/03/19 09:47:56;;;;;;;11.68;2.85;;;13.10;62.20;;;;;;9174821;19;20022;-61
2022/03/19 09:51:01;;;;;;;11.90;2.58;;;13.20;62.00;;;;;;9176839;19;20049;-64
2022/03/19 09:54:09;;;;;;;7.75;1.90;;;13.30;61.70;;;;;;9173150;19;20018;-62
2022/03/19 09:57:14;;;;;;;9.13;2.30;;;13.40;61.30;;;;;;9177919;19;20041;-61
2022/03/19 10:00:22;;;;;;;8.65;2.45;;;13.50;61.30;;;;;;9171899;19;20018;-63
2022/03/19 10:03:27;;;;;;;10.98;2.78;;;13.50;61.10;;;;;;9175005;19;20468;-62
2022/03/19 10:09:52;;;;;;;15.40;4.07;;;13.70;60.80;;;;;;9176253;19;20511;-60
2022/03/19 10:12:57;;;;;;;9.30;2.47;;;13.80;60.60;;;;;;9177435;19;20015;-61
2022/03/19 10:16:02;;;;;;;12.80;2.85;;;13.90;60.50;;;;;;9179030;19;20021;-61
2022/03/19 10:19:09;;;;;;;8.82;2.08;;;14.00;60.20;;;;;;9180050;19;20014;-62
2022/03/19 10:22:14;;;;;;;13.38;3.13;;;14.10;60.00;;;;;;9177192;19;20498;-62
2022/03/19 10:25:22;;;;;;;12.57;2.83;;;14.20;59.90;;;;;;9177182;19;20029;-62
2022/03/19 10:28:31;;;;;;;11.57;2.45;;;14.30;59.40;;;;;;9176992;19;20011;-61
2022/03/19 10:31:38;;;;;;;10.88;2.40;;;14.40;59.30;;;;;;9175764;19;20025;-64
2022/03/19 10:34:43;;;;;;;10.10;2.65;;;14.50;59.30;;;;;;9177249;19;20011;-63
2022/03/19 10:37:48;;;;;;;12.35;2.83;;;14.60;59.20;;;;;;9177330;19;20336;-61
2022/03/19 10:40:56;;;;;;;10.05;2.22;;;14.70;59.00;;;;;;9178888;19;20352;-61
2022/03/19 10:44:12;;;;;;;9.48;2.03;;;14.80;58.80;;;;;;9179041;19;20011;-61
2022/03/19 10:47:24;;;;;;;8.25;2.20;;;14.90;58.10;;;;;;9178195;19;20014;-62
2022/03/19 10:50:29;;;;;;;13.07;2.30;;;15.00;58.10;;;;;;9177368;19;20015;-62
2022/03/19 10:53:36;;;;;;;14.07;2.38;;;15.20;58.10;;;;;;9179707;19;20019;-62
2022/03/19 10:56:44;;;;;;;11.02;2.72;;;15.30;58.00;;;;;;9176805;19;20082;-61
2022/03/19 10:59:49;;;;;;;11.27;2.13;;;15.40;57.70;;;;;;9178578;19;20025;-63
2022/03/19 11:03:00;;;;;;;5.22;1.60;;;15.50;57.80;;;;;;9180464;19;20018;-62
2022/03/19 11:06:07;;;;;;;8.75;1.45;;;15.60;57.40;;;;;;9177846;19;20544;-62
2022/03/19 11:09:13;;;;;;;3.30;1.65;;;15.70;56.90;;;;;;9178291;19;20010;-61
2022/03/19 11:12:23;;;;;;;6.57;1.55;;;15.80;56.40;;;;;;9181397;19;20018;-62
2022/03/19 11:15:35;;;;;;;7.82;1.77;;;15.80;55.80;;;;;;9187479;19;20097;-61
2022/03/19 11:18:41;;;;;;;7.38;2.00;;;15.90;55.70;;;;;;9187349;19;20340;-60
2022/03/19 11:21:46;;;;;;;8.88;1.98;;;15.90;55.40;;;;;;9188304;19;20014;-62
2022/03/19 11:24:56;;;;;;;8.13;2.60;;;15.90;55.30;;;;;;9188956;19;20010;-62
2022/03/19 11:28:08;;;;;;;9.85;1.73;;;15.90;55.60;;;;;;9188907;19;20022;-62
2022/03/19 11:31:16;;;;;;;9.68;2.08;;;16.00;54.90;;;;;;9183416;19;20011;-61
2022/03/19 11:34:21;;;;;;;9.30;1.75;;;16.00;55.00;;;;;;9188058;19;20025;-61
2022/03/19 11:37:30;;;;;;;7.72;2.13;;;16.00;54.80;;;;;;9184494;19;20015;-62
2022/03/19 11:40:37;;;;;;;8.48;1.85;;;16.10;54.60;;;;;;9188107;19;20022;-61
2022/03/19 11:44:23;;;;;;;6.97;1.85;;;16.10;54.60;;;;;;9186315;19;20010;-61
2022/03/19 11:47:36;;;;;;;9.38;2.10;;;16.10;54.00;;;;;;9188200;19;20014;-60
2022/03/19 11:50:46;;;;;;;7.28;2.17;;;16.10;54.20;;;;;;9184222;19;20010;-61
2022/03/19 11:53:58;;;;;;;6.30;1.80;;;16.20;54.50;;;;;;9184743;19;20467;-64
2022/03/19 11:57:09;;;;;;;6.60;1.92;;;16.30;54.10;;;;;;9185024;19;20014;-62
2022/03/19 12:00:18;;;;;;;6.60;1.83;;;16.30;53.90;;;;;;9184449;19;20531;-61
2022/03/19 12:03:25;;;;;;;4.13;1.70;;;16.40;53.70;;;;;;9186327;19;20463;-62
2022/03/19 12:06:33;;;;;;;5.97;1.70;;;16.40;53.60;;;;;;9185573;19;20014;-61
2022/03/19 12:10:03;;;;;;;8.02;1.50;;;16.40;53.50;;;;;;9182370;19;20011;-61
2022/03/19 12:13:41;;;;;;;6.00;1.52;;;16.50;53.00;;;;;;9185515;19;20089;-63
2022/03/19 12:16:49;;;;;;;6.10;1.60;;;16.50;52.60;;;;;;9187444;19;20356;-61
2022/03/19 12:19:59;;;;;;;4.97;1.35;;;16.50;52.80;;;;;;9184704;19;20118;-61
2022/03/19 12:23:05;;;;;;;2.13;0.98;;;16.40;52.30;;;;;;9184580;19;20010;-61
2022/03/19 12:26:11;;;;;;;7.93;1.25;;;16.40;52.10;;;;;;9186182;19;20475;-61
2022/03/19 12:29:18;;;;;;;3.28;1.08;;;16.40;52.00;;;;;;9185384;19;20097;-63
2022/03/19 12:32:25;;;;;;;3.65;0.80;;;16.40;51.70;;;;;;9184460;19;20023;-62
2022/03/19 12:35:41;;;;;;;3.03;0.88;;;16.30;51.40;;;;;;9186376;19;20082;-63
2022/03/19 12:38:48;;;;;;;3.05;1.00;;;16.30;50.80;;;;;;9184103;19;20360;-62
2022/03/19 12:41:54;;;;;;;4.05;0.95;;;16.20;51.00;;;;;;9183287;19;20010;-61
2022/03/19 12:45:14;;;;;;;4.78;1.13;;;16.20;51.10;;;;;;9186215;19;20415;-63
2022/03/19 12:48:23;;;;;;;2.90;0.65;;;16.20;51.00;;;;;;9183638;19;20022;-63
2022/03/19 12:51:29;;;;;;;3.83;1.13;;;16.20;50.10;;;;;;9181393;19;20021;-61
2022/03/19 12:54:34;;;;;;;6.93;1.13;;;16.20;50.40;;;;;;9179117;19;20025;-60
2022/03/19 12:57:39;;;;;;;4.53;0.90;;;16.10;50.30;;;;;;9183416;19;20049;-61
2022/03/19 13:00:57;;;;;;;3.95;1.08;;;16.10;50.30;;;;;;9184601;19;20490;-62
2022/03/19 13:04:05;;;;;;;3.28;1.20;;;16.00;49.80;;;;;;9182169;19;20027;-61
2022/03/19 13:07:10;;;;;;;5.88;1.02;;;15.90;50.10;;;;;;9184796;19;20010;-62
2022/03/19 13:10:16;;;;;;;4.88;0.90;;;15.90;50.40;;;;;;9180792;19;20025;-62
2022/03/19 13:13:25;;;;;;;9.18;1.20;;;15.80;50.10;;;;;;9182786;19;20040;-62
2022/03/19 13:16:31;;;;;;;4.45;1.20;;;15.70;50.10;;;;;;9182727;19;20019;-63
2022/03/19 13:19:39;;;;;;;4.32;1.08;;;15.70;49.90;;;;;;9184255;19;20011;-63
2022/03/19 13:22:44;;;;;;;6.95;1.27;;;15.60;49.80;;;;;;9182822;19;20010;-62
2022/03/19 13:25:49;;;;;;;7.90;1.00;;;15.50;49.80;;;;;;9182306;19;20043;-62
2022/03/19 13:29:07;;;;;;;3.92;1.02;;;15.40;49.80;;;;;;9182587;19;20107;-62
2022/03/19 13:32:13;;;;;;;4.53;1.55;;;15.30;49.40;;;;;;9180734;19;20010;-61
2022/03/19 13:35:37;;;;;;;3.65;1.20;;;15.30;49.70;;;;;;9181815;19;20014;-62
2022/03/19 13:38:42;;;;;;;3.40;0.95;;;15.20;49.30;;;;;;9181735;19;20015;-62
2022/03/19 13:41:47;;;;;;;4.00;0.98;;;15.10;49.70;;;;;;9184497;19;20010;-61
2022/03/19 13:45:03;;;;;;;4.93;1.10;;;15.00;49.40;;;;;;9183002;19;20021;-62
2022/03/19 13:48:09;;;;;;;8.55;1.35;;;14.90;49.00;;;;;;9181066;19;20032;-62
2022/03/19 13:51:17;;;;;;;3.15;1.15;;;14.90;49.40;;;;;;9181537;19;20042;-62
2022/03/19 13:54:22;;;;;;;7.22;1.92;;;14.80;49.30;;;;;;9174232;19;20864;-62
2022/03/19 13:57:32;;;;;;;7.82;1.40;;;14.70;49.30;;;;;;9177872;19;20014;-62
2022/03/19 14:00:39;;;;;;;4.95;1.48;;;14.70;49.10;;;;;;9176432;19;20021;-62
2022/03/19 14:03:45;;;;;;;12.88;1.60;;;14.60;49.10;;;;;;9176448;19;20014;-62
2022/03/19 14:06:53;;;;;;;6.95;1.83;;;14.60;49.20;;;;;;9174330;19;20017;-63
2022/03/19 14:10:00;;;;;;;2.80;1.33;;;14.50;49.20;;;;;;9172436;19;20019;-63
2022/03/19 14:13:08;;;;;;;4.45;1.67;;;14.50;49.30;;;;;;9176972;19;20011;-63
2022/03/19 14:16:15;;;;;;;5.45;1.40;;;14.40;49.40;;;;;;9175274;19;20030;-61
2022/03/19 14:19:20;;;;;;;7.80;1.67;;;14.40;49.50;;;;;;9173717;19;20021;-63
2022/03/19 14:22:28;;;;;;;2.53;1.17;;;14.40;49.50;;;;;;9175290;19;20488;-62
2022/03/19 14:25:36;;;;;;;11.18;1.80;;;14.40;49.50;;;;;;9174824;19;20086;-62
2022/03/19 14:28:42;;;;;;;5.60;1.48;;;14.40;49.50;;;;;;9169880;19;20028;-63
2022/03/19 14:31:47;;;;;;;4.05;1.38;;;14.30;49.60;;;;;;9169080;19;20014;-64
2022/03/19 14:34:52;;;;;;;6.68;2.17;;;14.30;49.70;;;;;;9171418;19;20590;-62
2022/03/19 14:38:01;;;;;;;5.95;1.50;;;14.30;49.80;;;;;;9169004;19;20456;-62
2022/03/19 14:41:10;;;;;;;9.93;2.28;;;14.30;49.90;;;;;;9170023;19;20006;-61
2022/03/19 14:44:16;;;;;;;6.63;1.85;;;14.30;49.90;;;;;;9169936;19;20029;-61
2022/03/19 14:47:21;;;;;;;5.22;1.33;;;14.30;49.90;;;;;;9170666;19;20433;-61
2022/03/19 14:50:26;;;;;;;4.50;1.90;;;14.30;49.80;;;;;;9180893;19;20136;-62
2022/03/19 14:53:35;;;;;;;4.63;1.75;;;14.30;49.60;;;;;;9180092;19;20014;-62
2022/03/19 14:56:48;;;;;;;6.03;1.60;;;14.20;49.60;;;;;;9178184;19;20045;-62
2022/03/19 14:59:54;;;;;;;8.25;1.90;;;14.10;49.80;;;;;;9181441;19;20010;-62
2022/03/19 15:02:59;;;;;;;9.00;1.50;;;14.10;49.70;;;;;;9184241;19;20048;-64
2022/03/19 15:06:05;;;;;;;3.83;1.42;;;14.10;49.80;;;;;;9184511;19;20014;-64
2022/03/19 15:09:12;;;;;;;6.18;1.33;;;14.00;50.40;;;;;;9182583;19;20018;-63
2022/03/19 15:12:18;;;;;;;6.13;1.50;;;14.00;49.70;;;;;;9179535;19;20059;-64
2022/03/19 15:15:23;;;;;;;5.25;1.27;;;14.00;49.80;;;;;;9182886;19;20019;-61
2022/03/19 15:18:29;;;;;;;8.00;1.67;;;13.90;49.80;;;;;;9183317;19;20094;-63
2022/03/19 15:21:35;;;;;;;7.20;1.40;;;13.90;49.90;;;;;;9179526;19;20030;-60
2022/03/19 15:24:43;;;;;;;4.88;1.27;;;13.80;49.80;;;;;;9180532;19;20021;-61
2022/03/19 15:27:48;;;;;;;9.27;1.92;;;13.80;49.80;;;;;;9180521;19;20136;-62
2022/03/19 15:30:53;;;;;;;5.57;1.52;;;13.80;50.00;;;;;;9178517;19;20018;-61
2022/03/19 15:34:11;;;;;;;7.55;1.58;;;13.70;49.90;;;;;;9181372;19;20019;-61
2022/03/19 15:37:17;;;;;;;6.68;1.40;;;13.70;50.00;;;;;;9181057;19;20025;-64
2022/03/19 15:40:24;;;;;;;6.60;1.65;;;13.70;50.00;;;;;;9179520;19;20018;-62
2022/03/19 15:43:29;;;;;;;5.78;1.30;;;13.70;49.90;;;;;;9174482;19;20014;-62
2022/03/19 15:46:34;;;;;;;4.32;1.40;;;13.70;50.00;;;;;;9176935;19;20018;-63
2022/03/19 15:49:39;;;;;;;10.63;1.45;;;13.70;50.00;;;;;;9177380;19;20114;-61
2022/03/19 15:52:44;;;;;;;6.70;1.35;;;13.60;49.80;;;;;;9177180;19;20018;-60
2022/03/19 15:55:52;;;;;;;8.57;1.50;;;13.60;49.90;;;;;;9178257;19;20018;-62
2022/03/19 15:58:59;;;;;;;7.75;1.55;;;13.50;49.70;;;;;;9181442;19;20018;-61
2022/03/19 16:02:04;;;;;;;4.35;1.13;;;13.40;49.80;;;;;;9181062;19;20107;-61
2022/03/19 16:05:11;;;;;;;6.75;1.58;;;13.40;49.90;;;;;;9176988;19;20018;-62
2022/03/19 16:08:16;;;;;;;7.03;1.40;;;13.40;50.00;;;;;;9177690;19;20026;-61
2022/03/19 16:11:23;;;;;;;3.95;1.30;;;13.30;50.00;;;;;;9181397;19;20018;-62
2022/03/19 16:14:28;;;;;;;9.18;1.40;;;13.30;49.90;;;;;;9184409;19;20520;-60
2022/03/19 16:17:34;;;;;;;2.85;1.20;;;13.30;50.00;;;;;;9183063;19;20029;-62
2022/03/19 16:20:39;;;;;;;3.80;1.67;;;13.30;50.00;;;;;;9182040;19;20393;-62